Time;durP1;ratioP1;P1;durP2;ratioP2;P2;SDS_P1;SDS_P2;PMS_P1;PMS_P2;Temp;Humidity;BMP_temperature;BMP_pressure;BME280_temperature;BME280_humidity;BME280_pressure;Samples;Min_cycle;Max_cycle;Signal;HPM_P1;HPM_P2
2022/07/11 00:00:56;;;;;;;1819.90;999.90;;;17.40;99.90;;;;;;5049913;28;20051;-83
2022/07/11 00:03:21;;;;;;;1956.78;999.90;;;17.40;99.90;;;;;;5050329;28;20144;-83
2022/07/11 00:05:47;;;;;;;1970.22;999.90;;;17.30;99.90;;;;;;5048974;28;20106;-83
2022/07/11 00:08:13;;;;;;;1990.10;999.90;;;17.30;99.90;;;;;;5050742;28;20374;-82
2022/07/11 00:10:38;;;;;;;1999.90;999.90;;;17.30;99.90;;;;;;5050252;28;20115;-83
2022/07/11 00:13:04;;;;;;;1999.90;999.90;;;17.20;99.90;;;;;;5049472;28;20381;-83
2022/07/11 00:15:30;;;;;;;1999.90;999.90;;;17.20;99.90;;;;;;5049894;28;20296;-83
2022/07/11 00:17:56;;;;;;;1999.90;999.90;;;17.20;99.90;;;;;;5049503;28;20052;-83
2022/07/11 00:20:22;;;;;;;1999.90;999.90;;;17.20;99.90;;;;;;5050312;28;20091;-83
2022/07/11 00:22:47;;;;;;;1999.90;999.90;;;17.20;99.90;;;;;;5050561;28;20080;-82
2022/07/11 00:25:13;;;;;;;1999.90;999.90;;;17.10;99.90;;;;;;5050581;28;20116;-83
2022/07/11 00:27:39;;;;;;;1999.90;999.90;;;17.10;99.90;;;;;;5049996;28;20044;-83
2022/07/11 00:30:05;;;;;;;1999.90;999.90;;;17.10;99.90;;;;;;5050772;28;20048;-83
2022/07/11 00:32:31;;;;;;;1999.90;999.90;;;17.10;99.90;;;;;;5050295;28;20239;-83
2022/07/11 00:34:56;;;;;;;1999.90;999.90;;;17.10;99.90;;;;;;5049822;28;20081;-83
2022/07/11 00:37:22;;;;;;;1999.90;999.90;;;17.10;99.90;;;;;;5050382;28;20414;-83
2022/07/11 00:39:48;;;;;;;1999.90;999.90;;;17.00;99.90;;;;;;5049455;28;20045;-83
2022/07/11 00:42:17;;;;;;;1999.90;999.90;;;17.10;99.90;;;;;;5050499;28;20128;-83
2022/07/11 00:44:42;;;;;;;1999.90;999.90;;;17.00;99.90;;;;;;5050232;28;20416;-83
2022/07/11 00:47:08;;;;;;;1999.90;999.90;;;17.00;1.00;;;;;;5049724;28;20056;-84
2022/07/11 00:49:33;;;;;;;1999.90;999.90;;;17.00;1.00;;;;;;5048644;28;20496;-83
2022/07/11 00:51:59;;;;;;;1999.90;999.90;;;17.00;1.00;;;;;;5049944;28;20056;-84
2022/07/11 00:54:26;;;;;;;1999.90;999.90;;;17.00;1.00;;;;;;5050081;28;20041;-83
2022/07/11 00:56:52;;;;;;;1999.90;999.90;;;17.10;1.00;;;;;;5050061;28;20056;-83
2022/07/11 00:59:19;;;;;;;1999.90;999.90;;;17.00;1.00;;;;;;5050265;28;20127;-82
2022/07/11 01:01:45;;;;;;;1999.90;999.90;;;17.10;1.00;;;;;;5048024;28;20049;-83
2022/07/11 01:04:11;;;;;;;1999.90;999.90;;;17.00;1.00;;;;;;5049757;28;20060;-83
2022/07/11 01:06:37;;;;;;;1999.90;999.90;;;17.00;1.00;;;;;;5049746;28;20052;-84
2022/07/11 01:09:02;;;;;;;1999.90;999.90;;;17.00;1.00;;;;;;5051915;28;20132;-84
2022/07/11 01:11:28;;;;;;;1999.90;999.90;;;17.00;1.00;;;;;;5054144;28;20064;-84
2022/07/11 01:13:54;;;;;;;1999.90;999.90;;;17.00;1.00;;;;;;5053435;28;20056;-84
2022/07/11 01:16:22;;;;;;;1999.90;999.90;;;17.00;1.00;;;;;;5052790;28;20053;-85
2022/07/11 01:18:52;;;;;;;1999.90;999.90;;;17.00;1.00;;;;;;5052884;28;20490;-84
2022/07/11 01:21:31;;;;;;;1999.90;999.90;;;17.10;1.00;;;;;;5052976;28;20592;-84
2022/07/11 01:23:59;;;;;;;1999.90;999.90;;;17.10;1.00;;;;;;5052739;28;20052;-85
2022/07/11 01:26:25;;;;;;;1999.90;999.90;;;17.10;1.00;;;;;;5053444;28;20049;-84
2022/07/11 01:28:52;;;;;;;1999.90;999.90;;;17.10;1.00;;;;;;5053547;28;20091;-85
2022/07/11 01:31:19;;;;;;;1999.90;999.90;;;17.10;1.00;;;;;;5052403;28;20087;-85
2022/07/11 01:33:45;;;;;;;1999.90;999.90;;;17.10;1.00;;;;;;5053138;28;20053;-85
2022/07/11 01:36:12;;;;;;;1999.90;999.90;;;17.10;1.00;;;;;;5052542;28;20131;-85
2022/07/11 01:38:39;;;;;;;1999.90;999.90;;;17.10;1.00;;;;;;5053322;28;20105;-86
2022/07/11 01:41:05;;;;;;;1999.90;999.90;;;17.10;1.00;;;;;;5053506;28;20092;-85
2022/07/11 01:43:31;;;;;;;1999.90;999.90;;;17.00;1.00;;;;;;5053767;28;20403;-86
2022/07/11 01:45:57;;;;;;;1999.90;999.90;;;17.10;1.00;;;;;;5053151;28;20162;-86
2022/07/11 01:48:23;;;;;;;1999.90;999.90;;;17.10;1.00;;;;;;5052543;28;20475;-86
2022/07/11 01:50:50;;;;;;;1999.90;999.90;;;17.10;1.00;;;;;;5052612;28;20048;-86
2022/07/11 01:53:16;;;;;;;1999.90;999.90;;;17.10;1.00;;;;;;5052306;28;20389;-86
2022/07/11 01:55:42;;;;;;;1999.90;999.90;;;17.10;1.00;;;;;;5052736;28;20049;-86
2022/07/11 01:58:08;;;;;;;1999.90;999.90;;;17.10;1.00;;;;;;5085571;28;20055;-86
2022/07/11 02:00:35;;;;;;;1999.90;999.90;;;17.10;1.00;;;;;;5051663;28;20516;-85
2022/07/11 02:03:00;;;;;;;1999.90;999.90;;;17.10;1.00;;;;;;5052368;28;20072;-86
2022/07/11 02:05:26;;;;;;;1999.90;999.90;;;17.10;1.00;;;;;;5052015;28;20482;-86
2022/07/11 02:10:36;;;;;;;1999.90;999.90;;;17.10;1.00;;;;;;5052761;28;20045;-87
2022/07/11 02:13:02;;;;;;;1999.90;999.90;;;17.10;1.00;;;;;;5068273;28;20053;-87
2022/07/11 02:15:30;;;;;;;1999.90;999.90;;;17.20;1.00;;;;;;5052494;28;20041;-87
2022/07/11 02:17:56;;;;;;;1999.90;999.90;;;17.10;1.00;;;;;;5052456;28;20326;-88
2022/07/11 02:20:23;;;;;;;1999.90;999.90;;;17.10;1.00;;;;;;5051150;28;20532;-87
2022/07/11 02:22:48;;;;;;;1999.90;999.90;;;17.10;1.00;;;;;;5051183;28;20064;-88
2022/07/11 02:25:15;;;;;;;1999.90;999.90;;;17.10;1.00;;;;;;5085194;28;20045;-87
2022/07/11 02:27:41;;;;;;;1999.90;999.90;;;17.10;1.00;;;;;;5052337;28;20056;-88
2022/07/11 02:30:07;;;;;;;1999.90;999.90;;;17.10;1.00;;;;;;5052797;28;20054;-87
2022/07/11 02:32:33;;;;;;;1999.90;999.90;;;17.10;1.00;;;;;;5051799;28;20056;-87
2022/07/11 02:34:59;;;;;;;1999.90;999.90;;;17.10;1.00;;;;;;5051103;28;20041;-87
2022/07/11 02:37:25;;;;;;;1999.90;999.90;;;17.10;1.00;;;;;;5052509;28;20517;-87
2022/07/11 02:39:51;;;;;;;1999.90;999.90;;;17.10;1.00;;;;;;5050865;28;20076;-87
2022/07/11 02:42:18;;;;;;;1999.90;999.90;;;17.00;1.00;;;;;;5050834;28;20048;-87
2022/07/11 02:44:45;;;;;;;1999.90;999.90;;;17.00;1.00;;;;;;5051904;28;20235;-87
2022/07/11 02:47:10;;;;;;;1999.90;999.90;;;17.00;1.00;;;;;;5051524;28;20045;-87
2022/07/11 02:49:37;;;;;;;1999.90;999.90;;;17.00;1.00;;;;;;5052100;28;20115;-88
2022/07/11 02:52:04;;;;;;;1999.90;999.90;;;17.00;1.00;;;;;;5052295;28;20386;-88
2022/07/11 02:54:29;;;;;;;1999.90;999.90;;;17.00;1.00;;;;;;5083571;28;20040;-88
2022/07/11 02:56:56;;;;;;;1999.90;999.90;;;17.00;1.00;;;;;;5052403;28;20045;-88
2022/07/11 02:59:22;;;;;;;1999.90;999.90;;;17.00;1.00;;;;;;5052422;28;20064;-89
2022/07/11 03:01:48;;;;;;;1999.90;999.90;;;17.00;1.00;;;;;;5032730;28;20041;-89
2022/07/11 03:04:14;;;;;;;1999.90;999.90;;;17.00;1.00;;;;;;5051121;28;20053;-87
2022/07/11 03:06:40;;;;;;;1999.90;999.90;;;17.00;1.00;;;;;;5050889;28;20347;-88
2022/07/11 03:09:07;;;;;;;1999.90;999.90;;;17.10;1.00;;;;;;5052237;28;20048;-87
2022/07/11 03:11:33;;;;;;;1999.90;999.90;;;17.10;1.00;;;;;;5050895;28;20045;-88
2022/07/11 03:14:00;;;;;;;1999.90;999.90;;;17.10;1.00;;;;;;5051655;28;20466;-89
2022/07/11 03:16:30;;;;;;;1999.90;999.90;;;17.10;1.00;;;;;;5068346;28;20079;-88
2022/07/11 03:18:57;;;;;;;1999.90;999.90;;;17.00;1.30;;;;;;5051830;28;20041;-89
2022/07/11 03:21:24;;;;;;;1999.90;999.90;;;17.10;3.70;;;;;;5084377;28;20064;-89
2022/07/11 03:23:49;;;;;;;1999.90;999.90;;;17.10;3.10;;;;;;5067149;28;20049;-89
2022/07/11 03:26:16;;;;;;;1999.90;999.90;;;17.10;2.10;;;;;;5052246;28;20362;-89
2022/07/11 03:28:42;;;;;;;1999.90;999.90;;;17.10;4.30;;;;;;5052664;28;20055;-90
2022/07/11 03:31:07;;;;;;;1999.90;999.90;;;17.10;5.10;;;;;;5051621;28;20040;-90
2022/07/11 03:33:33;;;;;;;1999.90;999.90;;;17.10;4.60;;;;;;5084310;28;20053;-90
2022/07/11 03:35:59;;;;;;;1999.90;999.90;;;17.10;4.80;;;;;;5066661;28;20389;-90
2022/07/11 03:38:24;;;;;;;1999.90;999.90;;;17.10;4.90;;;;;;5050851;28;20044;-90
2022/07/11 03:40:50;;;;;;;1999.90;999.90;;;17.10;4.80;;;;;;5049993;28;20075;-89
2022/07/11 03:43:16;;;;;;;1999.90;999.90;;;17.10;9.60;;;;;;5050754;28;20069;-90
2022/07/11 03:45:42;;;;;;;1999.90;999.90;;;17.20;6.90;;;;;;5050808;28;20084;-90
2022/07/11 03:48:08;;;;;;;1999.90;999.90;;;17.10;7.70;;;;;;5049594;28;20045;-92
2022/07/11 03:50:35;;;;;;;1999.90;999.90;;;17.50;6.00;;;;;;5050493;28;20053;-93
2022/07/11 03:53:01;;;;;;;1999.90;999.90;;;17.10;8.10;;;;;;5049754;28;20059;-92
2022/07/11 03:55:28;;;;;;;1999.90;999.90;;;17.10;10.00;;;;;;5049545;28;20056;-94
2022/07/11 03:57:53;;;;;;;1999.90;999.90;;;17.20;8.80;;;;;;5050852;28;20084;-93
2022/07/11 04:00:20;;;;;;;1999.90;999.90;;;17.20;11.70;;;;;;5050245;28;20091;-96
2022/07/11 04:02:49;;;;;;;1999.90;999.90;;;17.10;17.60;;;;;;5053580;28;20117;-96
2022/07/11 04:05:15;;;;;;;1999.90;999.90;;;17.10;16.00;;;;;;5089611;28;20057;-93
2022/07/11 04:07:43;;;;;;;1999.90;999.90;;;17.10;18.10;;;;;;5061239;28;20125;-95
2022/07/11 04:10:09;;;;;;;1999.90;999.90;;;17.10;20.00;;;;;;5068220;28;20128;-96
2022/07/11 04:12:35;;;;;;;1999.90;999.90;;;17.20;19.00;;;;;;5035358;28;20087;-96
2022/07/11 04:15:06;;;;;;;1999.90;999.90;;;17.20;20.70;;;;;;5035324;28;20052;-94
2022/07/11 04:17:32;;;;;;;1999.90;999.90;;;17.20;19.90;;;;;;5049881;28;20092;-95
2022/07/11 04:19:58;;;;;;;1999.90;999.90;;;17.20;21.60;;;;;;5066349;28;20083;-95
2022/07/11 04:22:24;;;;;;;1999.90;999.90;;;17.30;21.00;;;;;;5068257;28;20111;-96
2022/07/11 04:24:50;;;;;;;1999.90;999.90;;;17.20;19.30;;;;;;5055898;28;20079;-96
2022/07/11 04:27:29;;;;;;;1999.90;999.90;;;16.40;15.80;;;;;;5061355;28;20040;-95
2022/07/11 04:30:39;;;;;;;;;;;;;;;;;;;;;
2022/07/11 04:52:31;;;;;;;;;;;;;;;;;;;;;
2022/07/11 05:11:50;;;;;;;1999.90;999.90;;;17.70;17.80;;;;;;5482675;23;20163;-95
2022/07/11 05:14:23;;;;;;;1999.90;999.90;;;17.80;20.00;;;;;;4905064;29;20581;-96
2022/07/11 05:17:00;;;;;;;1999.90;999.90;;;17.80;21.20;;;;;;4918661;29;20044;-96
2022/07/11 05:19:26;;;;;;;1999.90;999.90;;;17.90;17.90;;;;;;4926599;29;20071;-95
2022/07/11 05:21:52;;;;;;;1999.90;999.90;;;17.90;17.50;;;;;;4906249;29;20103;-96
2022/07/11 05:24:23;;;;;;;1999.90;999.90;;;18.00;20.50;;;;;;4901010;29;20600;-94
2022/07/11 05:26:48;;;;;;;1999.90;999.90;;;18.30;18.00;;;;;;4909213;29;20366;-89
2022/07/11 05:29:14;;;;;;;1999.90;999.90;;;18.10;7.10;;;;;;4886384;29;20052;-93
2022/07/11 05:31:42;;;;;;;1999.90;999.90;;;18.10;4.90;;;;;;4903787;29;20143;-90
2022/07/11 05:34:39;;;;;;;1999.90;999.90;;;18.30;6.40;;;;;;4900317;29;20044;-93
2022/07/11 05:37:05;;;;;;;1999.90;999.90;;;17.80;5.90;;;;;;4898749;29;20059;-92
2022/07/11 05:39:34;;;;;;;1999.90;999.90;;;18.10;3.50;;;;;;4908071;29;20035;-93
2022/07/11 05:42:33;;;;;;;1999.90;999.90;;;18.20;1.30;;;;;;4897038;29;20056;-90
2022/07/11 05:45:03;;;;;;;1999.90;999.90;;;18.30;2.50;;;;;;4919717;29;20196;-94
2022/07/11 05:47:32;;;;;;;1999.90;999.90;;;18.40;3.90;;;;;;4919894;29;20080;-94
2022/07/11 05:49:58;;;;;;;1992.53;999.90;;;18.20;3.50;;;;;;4909364;29;20108;-95
2022/07/11 05:52:24;;;;;;;1999.90;999.90;;;18.10;8.20;;;;;;4925246;29;20048;-94
2022/07/11 05:54:55;;;;;;;1999.90;999.90;;;18.10;1.00;;;;;;4957630;23;20060;-93
2022/07/11 05:57:23;;;;;;;1999.90;999.90;;;18.20;1.00;;;;;;4896187;29;20084;-93
2022/07/11 05:59:56;;;;;;;1999.90;999.90;;;18.20;5.60;;;;;;4905341;29;20368;-92
2022/07/11 06:02:33;;;;;;;;;;;;;;;;;;;;;
2022/07/11 06:04:59;;;;;;;1999.90;999.90;;;18.30;15.00;;;;;;4904743;29;20048;-94
2022/07/11 06:10:16;;;;;;;1999.90;999.90;;;18.30;13.70;;;;;;4883674;29;20057;-93
2022/07/11 06:12:50;;;;;;;1999.90;999.90;;;18.20;14.30;;;;;;4885757;29;20443;-95
2022/07/11 06:15:15;;;;;;;1999.90;999.90;;;18.30;13.10;;;;;;4897366;29;20044;-92
2022/07/11 06:17:43;;;;;;;1999.90;999.90;;;18.30;12.60;;;;;;4881104;29;20123;-93
2022/07/11 06:20:10;;;;;;;1999.90;999.90;;;18.30;13.50;;;;;;4879542;29;20056;-90
2022/07/11 06:22:35;;;;;;;1999.90;999.90;;;18.30;13.80;;;;;;4893080;29;20064;-93
2022/07/11 06:25:04;;;;;;;1999.90;999.90;;;17.20;17.90;;;;;;4880804;29;20147;-91
2022/07/11 06:27:33;;;;;;;1999.90;999.90;;;18.50;12.90;;;;;;4897220;29;20131;-90
2022/07/11 06:29:58;;;;;;;1999.90;999.90;;;18.40;12.20;;;;;;4880157;29;20135;-90
2022/07/11 06:32:24;;;;;;;1999.90;999.90;;;18.50;11.50;;;;;;4895819;29;20398;-88
2022/07/11 06:34:50;;;;;;;1999.90;999.90;;;18.50;22.10;;;;;;4896267;29;20048;-90
2022/07/11 06:37:16;;;;;;;1999.90;999.90;;;18.70;19.00;;;;;;4876577;29;20052;-90
2022/07/11 06:39:41;;;;;;;1999.90;999.90;;;17.70;13.10;;;;;;4896200;29;20094;-91
2022/07/11 06:42:07;;;;;;;1999.90;999.90;;;18.90;10.40;;;;;;4912579;29;20104;-91
2022/07/11 06:44:33;;;;;;;1999.90;999.90;;;18.90;6.60;;;;;;4883788;29;20059;-90
2022/07/11 06:46:59;;;;;;;1999.90;999.90;;;19.00;5.90;;;;;;4894721;29;20056;-89
2022/07/11 06:49:24;;;;;;;1999.90;999.90;;;19.00;5.40;;;;;;4897254;29;20411;-91
2022/07/11 06:51:50;;;;;;;1999.90;999.90;;;19.10;4.80;;;;;;4897116;29;20108;-90
2022/07/11 06:54:16;;;;;;;1999.90;999.90;;;19.10;1.00;;;;;;4896068;29;20074;-91
2022/07/11 06:56:42;;;;;;;1999.90;999.90;;;19.20;1.00;;;;;;4884801;29;20079;-92
2022/07/11 06:59:07;;;;;;;1999.90;999.90;;;19.30;1.00;;;;;;4896772;29;20188;-92
2022/07/11 07:01:33;;;;;;;1999.90;999.90;;;19.30;1.00;;;;;;4894439;29;20056;-90
2022/07/11 07:03:59;;;;;;;1885.30;999.90;;;19.30;1.00;;;;;;4895709;29;20394;-90
2022/07/11 07:06:25;;;;;;;1999.90;999.90;;;19.20;1.00;;;;;;4889961;29;20048;-89
2022/07/11 07:08:50;;;;;;;1999.90;999.90;;;18.20;1.00;;;;;;4896295;29;20084;-89
2022/07/11 07:11:16;;;;;;;1957.65;999.90;;;19.00;1.00;;;;;;4896508;29;20050;-89
2022/07/11 07:13:42;;;;;;;1999.90;999.90;;;19.00;1.00;;;;;;4896323;29;20080;-89
2022/07/11 07:16:08;;;;;;;1999.90;999.90;;;19.00;1.00;;;;;;4896428;29;20053;-88
2022/07/11 07:18:34;;;;;;;1999.90;999.90;;;;;;;;;;4895670;29;20516;-87
2022/07/11 07:21:00;;;;;;;1999.90;999.90;;;19.20;1.00;;;;;;4879943;29;20060;-85
2022/07/11 07:23:28;;;;;;;1999.90;999.90;;;19.20;1.00;;;;;;4894970;29;20040;-86
2022/07/11 07:25:53;;;;;;;;;;;19.30;1.00;;;;;;4897686;29;20040;-85
2022/07/11 07:28:19;;;;;;;1999.90;999.90;;;19.40;1.00;;;;;;4894636;29;20265;-85
2022/07/11 07:30:47;;;;;;;1999.90;999.90;;;19.50;1.00;;;;;;4897567;29;20132;-84
2022/07/11 07:33:12;;;;;;;;;;;19.60;1.00;;;;;;4895147;29;20049;-83
2022/07/11 07:35:38;;;;;;;1999.90;999.90;;;19.80;1.00;;;;;;4896455;29;19923;-82
2022/07/11 07:38:04;;;;;;;1999.90;999.90;;;19.80;1.00;;;;;;4883666;29;20094;-81
2022/07/11 07:40:29;;;;;;;1999.90;999.90;;;19.90;1.00;;;;;;4896461;29;20116;-81
2022/07/11 07:42:55;;;;;;;1999.90;999.90;;;19.90;1.00;;;;;;4895933;29;20072;-82
2022/07/11 07:45:21;;;;;;;1999.90;999.90;;;19.80;1.00;;;;;;4900976;29;20160;-80
2022/07/11 07:47:47;;;;;;;1999.90;999.90;;;20.00;1.00;;;;;;4911270;29;20136;-80
2022/07/11 07:50:13;;;;;;;1999.90;999.90;;;20.40;1.00;;;;;;4892544;29;20048;-88
2022/07/11 07:52:38;;;;;;;1999.90;999.90;;;20.70;1.00;;;;;;4896790;29;20542;-79
2022/07/11 07:55:06;;;;;;;1999.90;999.90;;;21.50;1.00;;;;;;4896484;29;20044;-80
2022/07/11 07:57:31;;;;;;;1999.90;999.90;;;22.40;1.00;;;;;;4895962;29;20135;-85
2022/07/11 08:02:42;;;;;;;1999.90;999.90;;;23.10;99.90;;;;;;4891868;29;20695;-81
2022/07/11 08:05:09;;;;;;;1999.90;999.90;;;22.40;99.90;;;;;;4895156;29;20056;-82
2022/07/11 08:07:35;;;;;;;1977.75;999.90;;;21.70;99.90;;;;;;4895974;29;20292;-82
2022/07/11 08:10:02;;;;;;;1934.03;999.90;;;21.40;99.90;;;;;;4894078;29;20494;-81
2022/07/11 08:12:27;;;;;;;1999.90;999.90;;;21.30;99.90;;;;;;4893227;29;20048;-82
2022/07/11 08:14:53;;;;;;;1999.90;999.90;;;21.60;99.90;;;;;;4895839;29;20320;-83
2022/07/11 08:17:18;;;;;;;1999.90;999.90;;;22.30;99.90;;;;;;4895705;29;20064;-82
2022/07/11 08:19:44;;;;;;;1999.90;999.90;;;23.00;99.90;;;;;;4892491;29;20049;-83
2022/07/11 08:22:11;;;;;;;1951.07;999.90;;;23.40;99.90;;;;;;4894215;29;20067;-83
2022/07/11 08:24:37;;;;;;;1999.90;999.90;;;23.60;99.90;;;;;;4892612;29;20044;-83
2022/07/11 08:27:03;;;;;;;1999.90;999.90;;;23.80;99.90;;;;;;4895085;29;20509;-83
2022/07/11 08:29:29;;;;;;;1999.90;999.90;;;23.90;75.50;;;;;;4889413;29;20093;-84
2022/07/11 08:31:54;;;;;;;1999.90;999.90;;;23.90;51.40;;;;;;4894902;29;20107;-85
2022/07/11 08:34:20;;;;;;;1999.90;999.90;;;23.80;65.60;;;;;;4894160;29;20191;-86
2022/07/11 08:36:46;;;;;;;1999.90;999.90;;;23.50;24.00;;;;;;4894372;29;20082;-86
2022/07/11 08:39:11;;;;;;;1999.90;999.90;;;23.20;33.90;;;;;;4896048;29;20059;-87
2022/07/11 08:41:43;;;;;;;1999.90;999.90;;;23.00;53.80;;;;;;4890691;29;20840;-87
2022/07/11 08:44:09;;;;;;;1999.90;999.90;;;22.70;71.50;;;;;;4894028;29;20080;-88
2022/07/11 08:46:37;;;;;;;1999.90;999.90;;;22.40;87.00;;;;;;4889462;29;20061;-88
2022/07/11 08:49:04;;;;;;;1999.90;999.90;;;22.30;95.20;;;;;;4893919;29;20413;-88
2022/07/11 08:51:29;;;;;;;1999.90;999.90;;;22.30;99.90;;;;;;4895673;29;20119;-89
2022/07/11 08:53:55;;;;;;;1999.90;999.90;;;22.20;99.90;;;;;;4897157;29;20076;-88
2022/07/11 08:56:21;;;;;;;1999.90;999.90;;;21.90;66.80;;;;;;4905096;29;20060;-88
2022/07/11 08:58:48;;;;;;;1999.90;999.90;;;21.60;58.20;;;;;;4912474;29;20080;-92
2022/07/11 09:01:16;;;;;;;1999.90;999.90;;;21.40;93.10;;;;;;4918427;29;20036;-92
2022/07/11 09:03:43;;;;;;;1999.90;999.90;;;21.20;94.90;;;;;;4914206;29;20045;-91
2022/07/11 09:06:10;;;;;;;1999.90;999.90;;;21.20;99.90;;;;;;4933845;29;20064;-92
2022/07/11 09:08:36;;;;;;;;;;;21.30;99.90;;;;;;4906093;29;20044;-90
2022/07/11 09:11:04;;;;;;;1999.90;999.90;;;21.70;99.90;;;;;;4917911;29;19923;-91
2022/07/11 09:13:30;;;;;;;1999.90;999.90;;;21.90;97.30;;;;;;4901097;29;20048;-93
2022/07/11 09:16:05;;;;;;;1999.90;999.90;;;22.00;99.90;;;;;;4899553;29;20108;-93
2022/07/11 09:18:37;;;;;;;1999.90;999.90;;;21.90;99.90;;;;;;4915030;29;20039;-94
2022/07/11 09:26:40;;;;;;;1999.90;999.90;;;21.30;72.00;;;;;;4915421;29;20088;-92
2022/07/11 09:29:10;;;;;;;1999.90;999.90;;;21.10;87.20;;;;;;4915812;29;20048;-93
2022/07/11 09:31:38;;;;;;;1999.90;999.90;;;21.10;99.90;;;;;;4918544;29;20060;-92
2022/07/11 09:34:08;;;;;;;1999.90;999.90;;;21.10;94.50;;;;;;4908472;29;20052;-94
2022/07/11 09:36:35;;;;;;;1999.90;999.90;;;21.20;99.90;;;;;;4900420;29;20193;-95
2022/07/11 09:39:05;;;;;;;1999.90;999.90;;;21.40;96.40;;;;;;4899991;29;20068;-94
2022/07/11 09:41:36;;;;;;;1999.90;999.90;;;21.70;99.90;;;;;;4899454;29;20131;-94
2022/07/11 09:44:12;;;;;;;1999.90;999.90;;;22.00;99.90;;;;;;4896067;29;20052;-94
2022/07/11 09:46:40;;;;;;;1999.90;999.90;;;22.20;56.90;;;;;;4881450;29;20080;-93
2022/07/11 09:49:07;;;;;;;1999.90;999.90;;;22.20;60.40;;;;;;4879748;29;20052;-94
2022/07/11 09:51:34;;;;;;;1999.90;999.90;;;22.20;39.20;;;;;;4880083;29;20064;-92
2022/07/11 09:54:01;;;;;;;1999.90;999.90;;;22.20;34.90;;;;;;4893754;29;20048;-94
2022/07/11 09:56:36;;;;;;;1999.90;999.90;;;22.10;21.20;;;;;;4899052;29;20060;-89
2022/07/11 09:59:03;;;;;;;1999.90;999.90;;;22.10;30.90;;;;;;4899330;29;20139;-93
2022/07/11 10:01:30;;;;;;;1999.90;999.90;;;22.00;25.90;;;;;;4898008;29;20044;-92
2022/07/11 10:03:56;;;;;;;1999.90;999.90;;;22.00;19.50;;;;;;4894879;29;20369;-92
2022/07/11 10:06:22;;;;;;;1999.90;999.90;;;22.00;27.10;;;;;;4898747;29;20048;-90
2022/07/11 10:08:50;;;;;;;1997.32;999.90;;;21.90;3.70;;;;;;4897723;29;20051;-90
2022/07/11 10:11:15;;;;;;;1999.90;999.90;;;21.80;1.00;;;;;;4896389;29;20108;-91
2022/07/11 10:13:42;;;;;;;1999.90;999.90;;;21.80;3.50;;;;;;4890882;29;20048;-90
2022/07/11 10:16:28;;;;;;;1999.90;999.90;;;21.80;25.80;;;;;;4898426;29;20048;-91
2022/07/11 10:19:11;;;;;;;1999.90;999.90;;;21.90;36.80;;;;;;4896792;29;20057;-89
2022/07/11 10:22:17;;;;;;;1999.90;999.90;;;21.90;13.40;;;;;;4897103;29;20486;-89
2022/07/11 10:25:01;;;;;;;1999.90;999.90;;;21.80;3.80;;;;;;4897615;29;20048;-88
2022/07/11 10:28:10;;;;;;;1999.90;999.90;;;21.70;1.70;;;;;;4879824;29;20071;-89
2022/07/11 10:30:50;;;;;;;1999.90;999.90;;;21.50;5.60;;;;;;4882589;29;20150;-87
2022/07/11 10:33:17;;;;;;;1999.90;999.90;;;21.40;12.90;;;;;;4897284;29;20052;-88
2022/07/11 10:35:45;;;;;;;1999.90;999.90;;;21.40;28.80;;;;;;4897553;29;20075;-87
2022/07/11 10:38:12;;;;;;;1999.90;999.90;;;21.60;25.00;;;;;;4898554;29;20127;-88
2022/07/11 10:40:48;;;;;;;1999.90;999.90;;;21.80;29.70;;;;;;4896957;29;21304;-87
2022/07/11 10:43:20;;;;;;;1999.90;999.90;;;21.90;1.00;;;;;;4896919;29;20116;-88
2022/07/11 10:46:01;;;;;;;1232.10;984.75;;;22.20;1.00;;;;;;4896287;29;20044;-87
2022/07/11 10:48:29;;;;;;;1999.90;999.90;;;22.40;3.40;;;;;;4896699;29;20048;-87
2022/07/11 10:51:19;;;;;;;1999.90;999.90;;;22.50;1.00;;;;;;4897328;29;20044;-87
2022/07/11 10:53:49;;;;;;;1999.90;999.90;;;22.50;1.00;;;;;;4897340;29;20072;-86
2022/07/11 10:56:38;;;;;;;1367.53;999.90;;;22.40;1.00;;;;;;4896081;29;20052;-86
2022/07/11 10:59:07;;;;;;;1218.07;998.17;;;22.40;1.00;;;;;;4897447;29;20103;-87
2022/07/11 11:01:33;;;;;;;1115.47;991.13;;;22.30;1.00;;;;;;4896227;29;20060;-88
2022/07/11 11:04:44;;;;;;;1338.57;999.90;;;22.30;1.00;;;;;;4892965;29;20367;-87
2022/07/11 11:07:31;;;;;;;1071.03;963.03;;;22.20;1.00;;;;;;4882216;29;20075;-86
2022/07/11 11:09:58;;;;;;;1067.95;957.78;;;22.00;1.00;;;;;;4895886;29;20284;-86
2022/07/11 11:13:05;;;;;;;1220.28;998.00;;;22.00;1.00;;;;;;4896562;29;20074;-86
2022/07/11 11:15:58;;;;;;;1012.17;916.35;;;22.20;1.00;;;;;;4894645;29;20136;-86
2022/07/11 11:18:24;;;;;;;1077.00;964.63;;;22.50;1.00;;;;;;4894055;29;20057;-85
2022/07/11 11:21:07;;;;;;;1642.68;999.90;;;22.60;1.00;;;;;;4895054;29;20080;-86
2022/07/11 11:23:40;;;;;;;889.25;814.10;;;22.60;1.00;;;;;;4897603;29;20095;-86
2022/07/11 11:26:12;;;;;;;1518.82;999.90;;;22.50;1.00;;;;;;4897512;29;20135;-85
2022/07/11 11:28:54;;;;;;;975.03;889.22;;;22.50;1.00;;;;;;4897292;29;20052;-85
2022/07/11 11:31:20;;;;;;;1490.25;999.90;;;22.60;1.00;;;;;;4896644;29;20044;-85
2022/07/11 11:33:47;;;;;;;1894.38;999.90;;;22.90;1.00;;;;;;4896288;29;20097;-85
2022/07/11 11:36:20;;;;;;;1078.50;947.33;;;23.30;1.00;;;;;;4897020;29;20052;-85
2022/07/11 11:38:49;;;;;;;1086.18;971.47;;;23.70;1.00;;;;;;4895576;29;20111;-85
2022/07/11 11:41:26;;;;;;;1051.70;949.85;;;24.00;1.00;;;;;;4896641;29;20084;-85
2022/07/11 11:43:54;;;;;;;1101.18;984.60;;;24.30;1.00;;;;;;4895595;29;20048;-86
2022/07/11 11:46:27;;;;;;;1043.25;940.55;;;24.30;1.00;;;;;;4897381;29;20159;-86
2022/07/11 11:49:04;;;;;;;1132.38;999.90;;;24.30;1.00;;;;;;4894730;29;20044;-85
2022/07/11 11:51:31;;;;;;;1078.18;964.17;;;24.10;1.00;;;;;;4895817;29;20048;-85
2022/07/11 11:53:58;;;;;;;;;;;23.90;1.00;;;;;;4895703;29;20120;-84
2022/07/11 11:56:28;;;;;;;1109.85;981.92;;;23.70;1.00;;;;;;4896909;29;20337;-84
2022/07/11 11:59:00;;;;;;;1474.53;999.90;;;23.60;1.00;;;;;;4895341;29;20482;-85
2022/07/11 12:01:30;;;;;;;1023.92;925.97;;;23.50;1.00;;;;;;4896080;29;20048;-85
2022/07/11 12:04:01;;;;;;;1087.68;977.60;;;23.50;1.00;;;;;;4891969;29;20122;-85
2022/07/11 12:06:29;;;;;;;1141.93;995.08;;;23.60;1.00;;;;;;4896920;29;20053;-85
2022/07/11 12:14:51;;;;;;;1504.63;999.90;;;24.40;1.00;;;;;;4893600;29;20053;-85
2022/07/11 12:17:26;;;;;;;1128.10;999.90;;;24.60;1.00;;;;;;4896769;29;20048;-85
2022/07/11 12:19:52;;;;;;;1080.95;966.60;;;24.90;1.00;;;;;;4894193;29;20507;-85
2022/07/11 12:22:18;;;;;;;1494.85;999.90;;;25.30;1.00;;;;;;4894036;29;20466;-84
2022/07/11 12:24:51;;;;;;;1009.72;909.75;;;25.30;1.00;;;;;;4896150;29;20080;-84
2022/07/11 12:27:21;;;;;;;1061.68;949.42;;;25.10;1.00;;;;;;4895744;29;20127;-84
2022/07/11 12:29:51;;;;;;;1011.40;913.88;;;24.80;1.00;;;;;;4896019;29;20063;-84
2022/07/11 12:32:22;;;;;;;1138.65;986.03;;;24.50;1.00;;;;;;4896341;29;20056;-84
2022/07/11 12:34:49;;;;;;;1212.07;999.90;;;24.30;1.00;;;;;;4895217;29;20442;-83
2022/07/11 12:37:16;;;;;;;1075.15;956.55;;;24.30;1.00;;;;;;4894395;29;20064;-84
2022/07/11 12:39:56;;;;;;;1126.50;981.67;;;24.40;1.00;;;;;;4894268;29;20064;-84
2022/07/11 12:42:27;;;;;;;1146.47;978.20;;;24.20;1.00;;;;;;4896250;29;20127;-84
2022/07/11 12:45:07;;;;;;;1117.32;979.80;;;24.30;1.00;;;;;;4895706;29;20491;-83
2022/07/11 12:47:35;;;;;;;1049.97;938.03;;;24.60;1.00;;;;;;4894273;29;20048;-85
2022/07/11 12:50:21;;;;;;;1081.50;963.92;;;24.80;1.00;;;;;;4895587;29;20298;-84
2022/07/11 12:52:50;;;;;;;1175.00;983.15;;;24.80;1.00;;;;;;4894740;29;20483;-83
2022/07/11 12:55:35;;;;;;;1163.68;977.85;;;24.50;1.00;;;;;;4895860;29;20116;-83
2022/07/11 12:58:07;;;;;;;1061.68;942.95;;;24.30;1.00;;;;;;4894483;29;20461;-83
2022/07/11 13:00:36;;;;;;;1248.45;966.60;;;24.40;1.00;;;;;;4895762;29;20509;-83
2022/07/11 13:03:03;;;;;;;1200.63;999.90;;;24.60;1.00;;;;;;4882284;29;20049;-83
2022/07/11 13:05:30;;;;;;;1179.00;999.90;;;24.80;1.00;;;;;;4881402;29;20148;-83
2022/07/11 13:10:52;;;;;;;1239.88;999.90;;;24.80;1.00;;;;;;4899790;29;20116;-83
2022/07/11 13:13:19;;;;;;;1328.85;999.90;;;25.00;1.00;;;;;;4899302;29;20116;-83
2022/07/11 13:15:50;;;;;;;1042.30;935.03;;;25.30;1.00;;;;;;4899093;29;20085;-85
2022/07/11 13:18:16;;;;;;;1031.57;930.67;;;25.70;1.00;;;;;;4897565;29;20055;-83